createdAt,value
2022-10-25T04:51:39.330Z,13.40
2022-10-25T04:56:42.237Z,13.40
2022-10-25T05:01:44.162Z,13.40
2022-10-25T05:06:46.100Z,13.30
2022-10-25T05:11:47.891Z,13.30
2022-10-25T05:16:49.679Z,13.30
2022-10-25T05:21:51.740Z,13.20
2022-10-25T05:26:53.587Z,13.20
2022-10-25T05:31:55.462Z,13.20
2022-10-25T05:36:57.603Z,13.20
2022-10-25T05:42:00.247Z,13.20
2022-10-25T05:47:02.144Z,13.20
2022-10-25T05:52:03.953Z,13.20
2022-10-25T05:57:05.747Z,13.20
2022-10-25T06:02:09.581Z,13.20
2022-10-25T06:07:11.601Z,13.10
2022-10-25T06:12:13.354Z,13.10
2022-10-25T06:17:15.168Z,13.20
2022-10-25T06:22:17.003Z,13.20
2022-10-25T06:27:19.085Z,13.20
2022-10-25T06:32:20.917Z,13.20
2022-10-25T06:37:22.709Z,13.20
2022-10-25T06:42:24.518Z,13.20
2022-10-25T06:47:26.338Z,13.30
2022-10-25T06:52:28.912Z,13.30
2022-10-25T06:57:30.724Z,13.40
2022-10-25T07:02:39.552Z,13.40
2022-10-25T07:07:41.359Z,13.30
2022-10-25T07:12:43.154Z,13.40
2022-10-25T07:17:45.155Z,13.40
2022-10-25T07:22:48.103Z,13.50
2022-10-25T07:27:50.138Z,13.50
2022-10-25T07:32:52.095Z,13.50
2022-10-25T07:37:53.901Z,13.50
2022-10-25T07:42:55.699Z,13.60
2022-10-25T07:47:57.626Z,13.60
2022-10-25T07:52:59.540Z,13.60
2022-10-25T07:58:06.249Z,13.60
2022-10-25T08:03:08.082Z,13.60
2022-10-25T08:08:10.081Z,13.60
2022-10-25T08:13:11.876Z,13.70
2022-10-25T08:18:13.824Z,13.80
2022-10-25T08:23:15.994Z,13.80
2022-10-25T08:28:17.820Z,13.90
2022-10-25T08:33:19.586Z,14.00
2022-10-25T08:38:21.410Z,14.00
2022-10-25T08:43:45.000Z,14.10
2022-10-25T08:48:50.357Z,14.00
2022-10-25T08:53:55.218Z,14.10
2022-10-25T08:59:01.811Z,14.10
2022-10-25T09:04:03.691Z,14.10
2022-10-25T09:09:44.210Z,14.20
2022-10-25T09:14:59.098Z,14.30
2022-10-25T09:20:13.972Z,14.30
2022-10-25T09:25:26.904Z,14.40
2022-10-25T09:30:30.289Z,14.50
2022-10-25T09:35:38.711Z,14.60
2022-10-25T09:40:47.528Z,14.70
2022-10-25T09:45:56.638Z,14.70
2022-10-25T09:51:13.718Z,14.80
2022-10-25T09:56:17.365Z,14.80
2022-10-25T10:01:27.531Z,14.90
2022-10-25T10:06:35.458Z,14.80
2022-10-25T10:11:37.674Z,14.90
2022-10-25T10:16:45.603Z,15.00
2022-10-25T10:21:55.978Z,15.00
2022-10-25T10:26:59.601Z,15.00
2022-10-25T10:32:05.218Z,15.10
2022-10-25T10:37:26.102Z,15.10
2022-10-25T10:42:37.098Z,15.20
2022-10-25T10:47:51.113Z,15.20
2022-10-25T10:53:06.016Z,15.30
2022-10-25T10:58:12.942Z,15.30
2022-10-25T11:03:36.415Z,15.30
2022-10-25T11:08:38.191Z,15.40
2022-10-25T11:13:40.170Z,15.50
2022-10-25T11:19:14.703Z,15.50
2022-10-25T11:24:25.484Z,15.60
2022-10-25T11:29:52.083Z,15.70
2022-10-25T11:35:06.245Z,15.80
2022-10-25T11:40:19.625Z,15.80
2022-10-25T11:45:46.969Z,15.90
2022-10-25T11:51:16.286Z,16.00
2022-10-25T11:56:42.725Z,16.10
2022-10-25T12:02:04.894Z,16.20
2022-10-25T12:07:19.887Z,16.30
2022-10-25T12:12:25.132Z,16.40
2022-10-25T12:17:29.810Z,16.50
2022-10-25T12:22:38.776Z,16.60
2022-10-25T12:27:43.192Z,16.70
2022-10-25T12:33:03.131Z,16.80
2022-10-25T12:38:34.726Z,16.90
2022-10-25T12:43:44.136Z,17.00
2022-10-25T12:49:10.849Z,17.10
2022-10-25T12:54:29.278Z,17.20
2022-10-25T12:59:40.796Z,17.30
2022-10-25T13:05:04.460Z,17.30
2022-10-25T13:10:07.636Z,17.50
2022-10-25T13:15:17.893Z,17.40
2022-10-25T13:20:19.738Z,17.40
2022-10-25T13:25:30.576Z,17.40
2022-10-25T13:30:32.690Z,17.40
2022-10-25T13:35:37.223Z,17.60
2022-10-25T13:40:39.055Z,17.70
2022-10-25T13:45:43.332Z,17.70
2022-10-25T13:50:55.573Z,17.70
2022-10-25T13:56:04.393Z,17.70
2022-10-25T14:01:12.277Z,17.70
2022-10-25T14:06:30.161Z,17.80
2022-10-25T14:11:31.908Z,17.70
2022-10-25T14:16:36.217Z,17.70
2022-10-25T14:21:38.042Z,17.70
2022-10-25T14:26:50.640Z,17.70
2022-10-25T14:31:53.087Z,17.60
2022-10-25T14:36:57.798Z,17.60
2022-10-25T14:42:01.642Z,17.60
2022-10-25T14:47:03.619Z,17.60
2022-10-25T14:52:06.873Z,17.60
2022-10-25T14:57:09.928Z,17.50
2022-10-25T15:02:21.990Z,17.50
2022-10-25T15:07:26.882Z,17.50
2022-10-25T15:12:33.279Z,17.50
2022-10-25T15:17:35.782Z,17.50
2022-10-25T15:22:37.587Z,17.50
2022-10-25T15:27:40.677Z,17.50
2022-10-25T15:32:42.507Z,17.50
2022-10-25T15:37:44.296Z,17.60
2022-10-25T15:42:46.307Z,17.60
2022-10-25T15:47:50.052Z,17.60
2022-10-25T15:52:52.801Z,17.60
2022-10-25T15:57:55.175Z,17.50
2022-10-25T16:02:57.609Z,17.40
2022-10-25T16:07:59.792Z,17.40
2022-10-25T16:13:04.203Z,17.30
2022-10-25T16:18:05.993Z,17.20
2022-10-25T16:23:07.780Z,17.00
2022-10-25T16:28:14.477Z,17.00
2022-10-25T16:33:16.561Z,16.90
2022-10-25T16:38:18.478Z,16.80
2022-10-25T16:43:20.287Z,16.70
2022-10-25T16:48:23.374Z,16.60
2022-10-25T16:53:25.262Z,16.50
2022-10-25T16:58:27.039Z,16.40
2022-10-25T17:03:28.885Z,16.30
2022-10-25T17:08:30.693Z,16.30
2022-10-25T17:13:34.578Z,16.10
2022-10-25T17:18:36.768Z,16.00
2022-10-25T17:23:39.436Z,16.00
2022-10-25T17:28:44.006Z,15.90
